sensor_id;sensor_type;location;lat;lon;timestamp;P1;durP1;ratioP1;P2;durP2;ratioP2
80245;SDS011;69558;39.208;-77.226;2023-12-20T00:01:50;2.13;;;1.92;;
80245;SDS011;69558;39.208;-77.226;2023-12-20T00:04:16;1.52;;;1.42;;
80245;SDS011;69558;39.208;-77.226;2023-12-20T00:06:42;1.55;;;1.17;;
80245;SDS011;69558;39.208;-77.226;2023-12-20T00:09:08;2.15;;;1.60;;
80245;SDS011;69558;39.208;-77.226;2023-12-20T00:11:34;1.05;;;0.82;;
80245;SDS011;69558;39.208;-77.226;2023-12-20T00:14:00;1.15;;;0.57;;
80245;SDS011;69558;39.208;-77.226;2023-12-20T00:16:26;1.45;;;1.35;;
80245;SDS011;69558;39.208;-77.226;2023-12-20T00:18:54;1.38;;;1.27;;
80245;SDS011;69558;39.208;-77.226;2023-12-20T00:21:19;1.48;;;1.35;;
80245;SDS011;69558;39.208;-77.226;2023-12-20T00:23:45;2.25;;;1.60;;
80245;SDS011;69558;39.208;-77.226;2023-12-20T00:26:11;1.67;;;1.58;;
80245;SDS011;69558;39.208;-77.226;2023-12-20T00:28:37;2.80;;;1.48;;
80245;SDS011;69558;39.208;-77.226;2023-12-20T00:31:03;1.08;;;0.60;;
80245;SDS011;69558;39.208;-77.226;2023-12-20T00:33:30;1.35;;;1.25;;
80245;SDS011;69558;39.208;-77.226;2023-12-20T00:35:57;1.42;;;1.33;;
80245;SDS011;69558;39.208;-77.226;2023-12-20T00:38:24;1.33;;;1.17;;
80245;SDS011;69558;39.208;-77.226;2023-12-20T00:40:50;1.63;;;1.52;;
80245;SDS011;69558;39.208;-77.226;2023-12-20T00:43:16;1.25;;;0.57;;
80245;SDS011;69558;39.208;-77.226;2023-12-20T00:45:42;2.03;;;1.42;;
80245;SDS011;69558;39.208;-77.226;2023-12-20T00:48:08;1.83;;;1.58;;
80245;SDS011;69558;39.208;-77.226;2023-12-20T00:50:34;1.85;;;1.63;;
80245;SDS011;69558;39.208;-77.226;2023-12-20T00:53:00;2.05;;;1.48;;
80245;SDS011;69558;39.208;-77.226;2023-12-20T00:55:26;0.90;;;0.45;;
80245;SDS011;69558;39.208;-77.226;2023-12-20T00:57:51;1.85;;;1.70;;
80245;SDS011;69558;39.208;-77.226;2023-12-20T01:00:18;1.60;;;1.45;;
80245;SDS011;69558;39.208;-77.226;2023-12-20T01:02:44;1.50;;;1.38;;
80245;SDS011;69558;39.208;-77.226;2023-12-20T01:05:11;1.98;;;1.50;;
80245;SDS011;69558;39.208;-77.226;2023-12-20T01:07:37;1.92;;;1.27;;
80245;SDS011;69558;39.208;-77.226;2023-12-20T01:10:04;1.05;;;0.60;;
80245;SDS011;69558;39.208;-77.226;2023-12-20T01:12:30;1.98;;;1.83;;
80245;SDS011;69558;39.208;-77.226;2023-12-20T01:15:04;1.95;;;1.75;;
80245;SDS011;69558;39.208;-77.226;2023-12-20T01:21:47;1.10;;;0.70;;
80245;SDS011;69558;39.208;-77.226;2023-12-20T01:24:13;1.80;;;1.70;;
80245;SDS011;69558;39.208;-77.226;2023-12-20T01:26:39;1.58;;;0.68;;
80245;SDS011;69558;39.208;-77.226;2023-12-20T01:29:05;1.58;;;1.38;;
80245;SDS011;69558;39.208;-77.226;2023-12-20T01:31:31;1.90;;;1.25;;
80245;SDS011;69558;39.208;-77.226;2023-12-20T01:33:57;1.50;;;0.30;;
80245;SDS011;69558;39.208;-77.226;2023-12-20T01:36:24;1.08;;;0.50;;
80245;SDS011;69558;39.208;-77.226;2023-12-20T01:38:49;2.10;;;1.52;;
80245;SDS011;69558;39.208;-77.226;2023-12-20T01:41:15;1.58;;;1.48;;
80245;SDS011;69558;39.208;-77.226;2023-12-20T01:43:41;1.33;;;1.23;;
80245;SDS011;69558;39.208;-77.226;2023-12-20T01:46:07;3.60;;;1.95;;
80245;SDS011;69558;39.208;-77.226;2023-12-20T01:48:33;3.30;;;2.08;;
80245;SDS011;69558;39.208;-77.226;2023-12-20T01:50:59;3.03;;;1.77;;
80245;SDS011;69558;39.208;-77.226;2023-12-20T01:53:25;2.95;;;1.63;;
80245;SDS011;69558;39.208;-77.226;2023-12-20T01:55:54;1.80;;;0.68;;
80245;SDS011;69558;39.208;-77.226;2023-12-20T01:58:23;2.28;;;2.03;;
80245;SDS011;69558;39.208;-77.226;2023-12-20T02:00:50;2.20;;;1.70;;
80245;SDS011;69558;39.208;-77.226;2023-12-20T02:03:16;1.98;;;0.93;;
80245;SDS011;69558;39.208;-77.226;2023-12-20T02:05:44;2.95;;;1.80;;
80245;SDS011;69558;39.208;-77.226;2023-12-20T02:08:11;2.75;;;1.80;;
80245;SDS011;69558;39.208;-77.226;2023-12-20T02:10:45;2.65;;;1.70;;
80245;SDS011;69558;39.208;-77.226;2023-12-20T02:13:12;2.38;;;0.73;;
80245;SDS011;69558;39.208;-77.226;2023-12-20T02:15:38;2.25;;;1.45;;
80245;SDS011;69558;39.208;-77.226;2023-12-20T02:18:04;2.40;;;1.52;;
80245;SDS011;69558;39.208;-77.226;2023-12-20T02:20:31;2.13;;;1.48;;
80245;SDS011;69558;39.208;-77.226;2023-12-20T02:22:56;2.65;;;1.73;;
80245;SDS011;69558;39.208;-77.226;2023-12-20T02:25:22;2.67;;;1.70;;
80245;SDS011;69558;39.208;-77.226;2023-12-20T02:27:48;2.28;;;1.70;;
80245;SDS011;69558;39.208;-77.226;2023-12-20T02:30:15;2.05;;;0.90;;
80245;SDS011;69558;39.208;-77.226;2023-12-20T02:32:41;1.42;;;0.60;;
80245;SDS011;69558;39.208;-77.226;2023-12-20T02:35:06;2.42;;;1.70;;
80245;SDS011;69558;39.208;-77.226;2023-12-20T02:37:33;1.75;;;1.58;;
80245;SDS011;69558;39.208;-77.226;2023-12-20T02:39:59;1.50;;;0.55;;
80245;SDS011;69558;39.208;-77.226;2023-12-20T02:42:25;1.83;;;1.50;;
80245;SDS011;69558;39.208;-77.226;2023-12-20T02:44:51;1.85;;;1.40;;
80245;SDS011;69558;39.208;-77.226;2023-12-20T02:47:17;1.70;;;0.70;;
80245;SDS011;69558;39.208;-77.226;2023-12-20T02:49:42;1.95;;;1.52;;
80245;SDS011;69558;39.208;-77.226;2023-12-20T02:52:08;2.17;;;0.68;;
80245;SDS011;69558;39.208;-77.226;2023-12-20T02:54:34;2.28;;;1.63;;
80245;SDS011;69558;39.208;-77.226;2023-12-20T02:57:00;2.70;;;1.80;;
80245;SDS011;69558;39.208;-77.226;2023-12-20T02:59:26;1.52;;;0.63;;
80245;SDS011;69558;39.208;-77.226;2023-12-20T03:01:52;2.00;;;1.80;;
80245;SDS011;69558;39.208;-77.226;2023-12-20T03:04:17;2.50;;;1.75;;
80245;SDS011;69558;39.208;-77.226;2023-12-20T03:06:43;1.65;;;0.55;;
80245;SDS011;69558;39.208;-77.226;2023-12-20T03:09:09;2.13;;;1.67;;
80245;SDS011;69558;39.208;-77.226;2023-12-20T03:11:35;2.47;;;1.80;;
80245;SDS011;69558;39.208;-77.226;2023-12-20T03:14:00;2.13;;;1.70;;
80245;SDS011;69558;39.208;-77.226;2023-12-20T03:16:26;2.15;;;0.77;;
80245;SDS011;69558;39.208;-77.226;2023-12-20T03:18:52;1.92;;;1.65;;
80245;SDS011;69558;39.208;-77.226;2023-12-20T03:21:18;1.88;;;1.60;;
80245;SDS011;69558;39.208;-77.226;2023-12-20T03:23:44;3.70;;;2.17;;
80245;SDS011;69558;39.208;-77.226;2023-12-20T03:26:10;6.78;;;3.80;;
80245;SDS011;69558;39.208;-77.226;2023-12-20T03:28:36;5.70;;;3.50;;
80245;SDS011;69558;39.208;-77.226;2023-12-20T03:31:02;4.80;;;2.78;;
80245;SDS011;69558;39.208;-77.226;2023-12-20T03:33:29;4.75;;;2.47;;
80245;SDS011;69558;39.208;-77.226;2023-12-20T03:35:55;4.30;;;2.92;;
80245;SDS011;69558;39.208;-77.226;2023-12-20T03:38:21;4.00;;;2.35;;
80245;SDS011;69558;39.208;-77.226;2023-12-20T03:40:49;4.30;;;2.40;;
80245;SDS011;69558;39.208;-77.226;2023-12-20T03:43:15;3.75;;;2.25;;
80245;SDS011;69558;39.208;-77.226;2023-12-20T03:45:42;3.45;;;2.17;;
80245;SDS011;69558;39.208;-77.226;2023-12-20T03:48:08;3.30;;;2.45;;
80245;SDS011;69558;39.208;-77.226;2023-12-20T03:50:34;4.22;;;2.38;;
80245;SDS011;69558;39.208;-77.226;2023-12-20T03:53:00;3.88;;;2.22;;
80245;SDS011;69558;39.208;-77.226;2023-12-20T03:55:26;2.78;;;1.98;;
80245;SDS011;69558;39.208;-77.226;2023-12-20T03:57:52;3.47;;;2.33;;
80245;SDS011;69558;39.208;-77.226;2023-12-20T04:00:18;3.30;;;2.25;;
80245;SDS011;69558;39.208;-77.226;2023-12-20T04:02:44;2.65;;;1.63;;
80245;SDS011;69558;39.208;-77.226;2023-12-20T04:05:11;2.30;;;1.08;;
80245;SDS011;69558;39.208;-77.226;2023-12-20T04:07:37;2.22;;;1.70;;
80245;SDS011;69558;39.208;-77.226;2023-12-20T04:10:03;2.63;;;1.80;;
80245;SDS011;69558;39.208;-77.226;2023-12-20T04:12:29;2.53;;;1.73;;
80245;SDS011;69558;39.208;-77.226;2023-12-20T04:14:56;3.45;;;2.33;;
80245;SDS011;69558;39.208;-77.226;2023-12-20T04:17:22;2.78;;;1.75;;
80245;SDS011;69558;39.208;-77.226;2023-12-20T04:19:48;2.40;;;1.88;;
80245;SDS011;69558;39.208;-77.226;2023-12-20T04:22:15;2.53;;;2.03;;
80245;SDS011;69558;39.208;-77.226;2023-12-20T04:24:41;2.03;;;0.77;;
80245;SDS011;69558;39.208;-77.226;2023-12-20T04:27:09;1.98;;;1.67;;
80245;SDS011;69558;39.208;-77.226;2023-12-20T04:29:35;2.58;;;1.90;;
80245;SDS011;69558;39.208;-77.226;2023-12-20T04:32:01;2.33;;;1.75;;
80245;SDS011;69558;39.208;-77.226;2023-12-20T04:34:28;2.47;;;1.58;;
80245;SDS011;69558;39.208;-77.226;2023-12-20T04:36:54;2.13;;;1.55;;
80245;SDS011;69558;39.208;-77.226;2023-12-20T04:39:19;2.65;;;1.48;;
80245;SDS011;69558;39.208;-77.226;2023-12-20T04:41:45;2.63;;;1.92;;
80245;SDS011;69558;39.208;-77.226;2023-12-20T04:44:13;1.50;;;0.80;;
80245;SDS011;69558;39.208;-77.226;2023-12-20T04:46:39;2.45;;;1.58;;
80245;SDS011;69558;39.208;-77.226;2023-12-20T04:49:05;2.25;;;1.00;;
80245;SDS011;69558;39.208;-77.226;2023-12-20T04:51:34;2.33;;;1.80;;
80245;SDS011;69558;39.208;-77.226;2023-12-20T04:54:00;2.38;;;1.92;;
80245;SDS011;69558;39.208;-77.226;2023-12-20T04:56:26;2.45;;;1.75;;
80245;SDS011;69558;39.208;-77.226;2023-12-20T04:58:52;2.63;;;1.65;;
80245;SDS011;69558;39.208;-77.226;2023-12-20T05:01:18;1.88;;;1.55;;
80245;SDS011;69558;39.208;-77.226;2023-12-20T05:03:43;2.10;;;1.58;;
80245;SDS011;69558;39.208;-77.226;2023-12-20T05:06:09;2.28;;;1.67;;
80245;SDS011;69558;39.208;-77.226;2023-12-20T05:08:35;2.42;;;1.95;;
80245;SDS011;69558;39.208;-77.226;2023-12-20T05:11:01;1.88;;;1.42;;
80245;SDS011;69558;39.208;-77.226;2023-12-20T05:13:28;1.10;;;0.40;;
80245;SDS011;69558;39.208;-77.226;2023-12-20T05:15:54;2.58;;;1.60;;
80245;SDS011;69558;39.208;-77.226;2023-12-20T05:18:20;1.90;;;0.60;;
80245;SDS011;69558;39.208;-77.226;2023-12-20T05:20:46;1.13;;;0.80;;
80245;SDS011;69558;39.208;-77.226;2023-12-20T05:23:12;2.20;;;1.85;;
80245;SDS011;69558;39.208;-77.226;2023-12-20T05:25:39;1.60;;;0.60;;
80245;SDS011;69558;39.208;-77.226;2023-12-20T05:28:05;2.28;;;1.55;;
80245;SDS011;69558;39.208;-77.226;2023-12-20T05:30:31;1.85;;;1.52;;
80245;SDS011;69558;39.208;-77.226;2023-12-20T05:32:57;1.90;;;1.65;;
80245;SDS011;69558;39.208;-77.226;2023-12-20T05:35:23;1.92;;;1.27;;
80245;SDS011;69558;39.208;-77.226;2023-12-20T05:37:49;1.23;;;0.55;;
80245;SDS011;69558;39.208;-77.226;2023-12-20T05:40:15;2.25;;;1.73;;
80245;SDS011;69558;39.208;-77.226;2023-12-20T05:42:41;2.00;;;1.52;;
80245;SDS011;69558;39.208;-77.226;2023-12-20T05:45:07;2.00;;;1.67;;
80245;SDS011;69558;39.208;-77.226;2023-12-20T05:47:33;2.35;;;1.90;;
80245;SDS011;69558;39.208;-77.226;2023-12-20T05:49:59;5.55;;;2.50;;
80245;SDS011;69558;39.208;-77.226;2023-12-20T05:52:25;8.48;;;4.95;;
80245;SDS011;69558;39.208;-77.226;2023-12-20T05:54:51;7.72;;;4.60;;
80245;SDS011;69558;39.208;-77.226;2023-12-20T05:57:17;6.50;;;3.72;;
80245;SDS011;69558;39.208;-77.226;2023-12-20T05:59:43;9.80;;;6.65;;
80245;SDS011;69558;39.208;-77.226;2023-12-20T06:02:09;9.38;;;5.68;;
80245;SDS011;69558;39.208;-77.226;2023-12-20T06:04:34;9.15;;;6.45;;
80245;SDS011;69558;39.208;-77.226;2023-12-20T06:07:00;8.80;;;6.30;;
80245;SDS011;69558;39.208;-77.226;2023-12-20T06:09:29;7.30;;;4.13;;
80245;SDS011;69558;39.208;-77.226;2023-12-20T06:11:55;7.10;;;4.72;;
80245;SDS011;69558;39.208;-77.226;2023-12-20T06:14:21;7.05;;;5.00;;
80245;SDS011;69558;39.208;-77.226;2023-12-20T06:16:46;6.47;;;4.30;;
80245;SDS011;69558;39.208;-77.226;2023-12-20T06:19:12;6.57;;;4.50;;
80245;SDS011;69558;39.208;-77.226;2023-12-20T06:21:39;6.35;;;4.72;;
80245;SDS011;69558;39.208;-77.226;2023-12-20T06:24:04;6.38;;;4.85;;
80245;SDS011;69558;39.208;-77.226;2023-12-20T06:26:30;6.80;;;4.45;;
80245;SDS011;69558;39.208;-77.226;2023-12-20T06:28:56;6.85;;;4.35;;
80245;SDS011;69558;39.208;-77.226;2023-12-20T06:31:22;5.65;;;3.70;;
80245;SDS011;69558;39.208;-77.226;2023-12-20T06:33:48;5.90;;;3.88;;
80245;SDS011;69558;39.208;-77.226;2023-12-20T06:36:22;6.18;;;3.25;;
80245;SDS011;69558;39.208;-77.226;2023-12-20T06:38:51;6.63;;;4.88;;
80245;SDS011;69558;39.208;-77.226;2023-12-20T06:41:18;4.95;;;3.70;;
80245;SDS011;69558;39.208;-77.226;2023-12-20T06:43:43;4.90;;;3.38;;
80245;SDS011;69558;39.208;-77.226;2023-12-20T06:46:09;5.05;;;3.05;;
80245;SDS011;69558;39.208;-77.226;2023-12-20T06:48:35;4.95;;;3.28;;
80245;SDS011;69558;39.208;-77.226;2023-12-20T06:51:01;3.83;;;2.60;;
80245;SDS011;69558;39.208;-77.226;2023-12-20T06:53:28;3.40;;;1.52;;
80245;SDS011;69558;39.208;-77.226;2023-12-20T06:55:54;3.60;;;2.53;;
80245;SDS011;69558;39.208;-77.226;2023-12-20T06:58:21;4.18;;;2.38;;
80245;SDS011;69558;39.208;-77.226;2023-12-20T07:00:47;3.00;;;2.30;;
80245;SDS011;69558;39.208;-77.226;2023-12-20T07:03:13;2.25;;;1.05;;
80245;SDS011;69558;39.208;-77.226;2023-12-20T07:05:39;3.47;;;2.20;;
80245;SDS011;69558;39.208;-77.226;2023-12-20T07:08:06;2.78;;;1.77;;
80245;SDS011;69558;39.208;-77.226;2023-12-20T07:10:32;2.70;;;1.83;;
80245;SDS011;69558;39.208;-77.226;2023-12-20T07:12:58;3.53;;;2.20;;
80245;SDS011;69558;39.208;-77.226;2023-12-20T07:15:24;2.85;;;2.30;;
80245;SDS011;69558;39.208;-77.226;2023-12-20T07:17:52;3.10;;;2.20;;
80245;SDS011;69558;39.208;-77.226;2023-12-20T07:20:17;3.03;;;1.85;;
80245;SDS011;69558;39.208;-77.226;2023-12-20T07:22:43;2.78;;;2.08;;
80245;SDS011;69558;39.208;-77.226;2023-12-20T07:25:09;2.13;;;1.85;;
80245;SDS011;69558;39.208;-77.226;2023-12-20T07:27:35;2.33;;;2.00;;
80245;SDS011;69558;39.208;-77.226;2023-12-20T07:30:01;3.05;;;1.73;;
80245;SDS011;69558;39.208;-77.226;2023-12-20T07:32:28;3.03;;;1.77;;
80245;SDS011;69558;39.208;-77.226;2023-12-20T07:34:54;2.85;;;1.67;;
80245;SDS011;69558;39.208;-77.226;2023-12-20T07:37:20;3.03;;;1.92;;
80245;SDS011;69558;39.208;-77.226;2023-12-20T07:39:46;1.80;;;1.52;;
80245;SDS011;69558;39.208;-77.226;2023-12-20T07:42:13;1.35;;;0.73;;
80245;SDS011;69558;39.208;-77.226;2023-12-20T07:44:39;2.28;;;1.55;;
80245;SDS011;69558;39.208;-77.226;2023-12-20T07:47:05;1.17;;;0.70;;
80245;SDS011;69558;39.208;-77.226;2023-12-20T07:49:31;1.73;;;0.70;;
80245;SDS011;69558;39.208;-77.226;2023-12-20T07:51:58;1.70;;;1.60;;
80245;SDS011;69558;39.208;-77.226;2023-12-20T07:54:24;2.92;;;1.73;;
80245;SDS011;69558;39.208;-77.226;2023-12-20T07:56:50;2.42;;;1.55;;
80245;SDS011;69558;39.208;-77.226;2023-12-20T07:59:16;2.63;;;1.80;;
80245;SDS011;69558;39.208;-77.226;2023-12-20T08:01:41;1.42;;;0.70;;
80245;SDS011;69558;39.208;-77.226;2023-12-20T08:04:08;2.20;;;1.70;;
80245;SDS011;69558;39.208;-77.226;2023-12-20T08:06:33;3.13;;;2.15;;
80245;SDS011;69558;39.208;-77.226;2023-12-20T08:08:59;2.53;;;1.90;;
80245;SDS011;69558;39.208;-77.226;2023-12-20T08:11:25;2.05;;;1.48;;
80245;SDS011;69558;39.208;-77.226;2023-12-20T08:13:51;2.00;;;1.25;;
80245;SDS011;69558;39.208;-77.226;2023-12-20T08:16:17;2.63;;;1.35;;
80245;SDS011;69558;39.208;-77.226;2023-12-20T08:18:43;2.58;;;2.17;;
80245;SDS011;69558;39.208;-77.226;2023-12-20T08:21:09;2.80;;;2.08;;
80245;SDS011;69558;39.208;-77.226;2023-12-20T08:23:36;2.50;;;1.88;;
80245;SDS011;69558;39.208;-77.226;2023-12-20T08:26:06;2.13;;;1.77;;
80245;SDS011;69558;39.208;-77.226;2023-12-20T08:28:33;2.45;;;1.98;;
80245;SDS011;69558;39.208;-77.226;2023-12-20T08:30:59;2.55;;;1.73;;
80245;SDS011;69558;39.208;-77.226;2023-12-20T08:33:25;2.50;;;1.83;;
80245;SDS011;69558;39.208;-77.226;2023-12-20T08:35:51;2.40;;;1.73;;
80245;SDS011;69558;39.208;-77.226;2023-12-20T08:38:17;1.85;;;1.63;;
80245;SDS011;69558;39.208;-77.226;2023-12-20T08:40:43;1.83;;;1.40;;
80245;SDS011;69558;39.208;-77.226;2023-12-20T08:43:09;1.95;;;1.02;;
80245;SDS011;69558;39.208;-77.226;2023-12-20T08:45:35;2.83;;;2.15;;
80245;SDS011;69558;39.208;-77.226;2023-12-20T08:48:02;2.05;;;0.80;;
80245;SDS011;69558;39.208;-77.226;2023-12-20T08:50:28;1.33;;;0.85;;
80245;SDS011;69558;39.208;-77.226;2023-12-20T08:52:55;1.85;;;0.75;;
80245;SDS011;69558;39.208;-77.226;2023-12-20T08:55:21;2.72;;;1.85;;
80245;SDS011;69558;39.208;-77.226;2023-12-20T08:57:47;2.28;;;1.85;;
80245;SDS011;69558;39.208;-77.226;2023-12-20T09:00:13;2.13;;;1.55;;
80245;SDS011;69558;39.208;-77.226;2023-12-20T09:02:39;2.83;;;1.45;;
80245;SDS011;69558;39.208;-77.226;2023-12-20T09:05:06;2.35;;;1.70;;
80245;SDS011;69558;39.208;-77.226;2023-12-20T09:07:32;2.00;;;1.80;;
80245;SDS011;69558;39.208;-77.226;2023-12-20T09:09:58;2.03;;;1.75;;
80245;SDS011;69558;39.208;-77.226;2023-12-20T09:12:25;1.70;;;1.58;;
80245;SDS011;69558;39.208;-77.226;2023-12-20T09:14:51;2.10;;;1.75;;
80245;SDS011;69558;39.208;-77.226;2023-12-20T09:17:17;2.55;;;2.03;;
80245;SDS011;69558;39.208;-77.226;2023-12-20T09:19:44;2.70;;;1.98;;
80245;SDS011;69558;39.208;-77.226;2023-12-20T09:22:10;2.40;;;1.73;;
80245;SDS011;69558;39.208;-77.226;2023-12-20T09:24:37;2.47;;;1.92;;
80245;SDS011;69558;39.208;-77.226;2023-12-20T09:27:04;2.40;;;1.75;;
80245;SDS011;69558;39.208;-77.226;2023-12-20T09:29:30;1.95;;;1.63;;
80245;SDS011;69558;39.208;-77.226;2023-12-20T09:31:56;2.15;;;1.92;;
80245;SDS011;69558;39.208;-77.226;2023-12-20T09:34:23;2.50;;;1.88;;
80245;SDS011;69558;39.208;-77.226;2023-12-20T09:36:51;2.40;;;1.67;;
80245;SDS011;69558;39.208;-77.226;2023-12-20T09:39:17;2.15;;;1.88;;
80245;SDS011;69558;39.208;-77.226;2023-12-20T09:41:45;2.00;;;0.88;;
80245;SDS011;69558;39.208;-77.226;2023-12-20T09:44:22;1.20;;;0.65;;
80245;SDS011;69558;39.208;-77.226;2023-12-20T09:46:49;1.23;;;0.70;;
80245;SDS011;69558;39.208;-77.226;2023-12-20T09:49:17;1.25;;;0.50;;
80245;SDS011;69558;39.208;-77.226;2023-12-20T09:51:44;1.70;;;1.52;;
80245;SDS011;69558;39.208;-77.226;2023-12-20T09:54:12;1.50;;;0.70;;
80245;SDS011;69558;39.208;-77.226;2023-12-20T09:56:40;1.83;;;1.45;;
80245;SDS011;69558;39.208;-77.226;2023-12-20T09:59:05;2.20;;;1.27;;
80245;SDS011;69558;39.208;-77.226;2023-12-20T10:01:31;1.83;;;1.48;;
80245;SDS011;69558;39.208;-77.226;2023-12-20T10:03:59;2.63;;;2.17;;
80245;SDS011;69558;39.208;-77.226;2023-12-20T10:06:27;2.13;;;1.85;;
80245;SDS011;69558;39.208;-77.226;2023-12-20T10:08:53;2.95;;;1.85;;
80245;SDS011;69558;39.208;-77.226;2023-12-20T10:11:19;2.83;;;1.88;;
80245;SDS011;69558;39.208;-77.226;2023-12-20T10:13:47;2.13;;;1.60;;
80245;SDS011;69558;39.208;-77.226;2023-12-20T10:16:14;1.92;;;1.17;;
80245;SDS011;69558;39.208;-77.226;2023-12-20T10:18:40;2.15;;;1.45;;
80245;SDS011;69558;39.208;-77.226;2023-12-20T10:21:06;2.67;;;1.95;;
80245;SDS011;69558;39.208;-77.226;2023-12-20T10:23:35;2.55;;;1.95;;
80245;SDS011;69558;39.208;-77.226;2023-12-20T10:26:02;2.58;;;2.20;;
80245;SDS011;69558;39.208;-77.226;2023-12-20T10:28:32;2.42;;;1.92;;
80245;SDS011;69558;39.208;-77.226;2023-12-20T10:30:59;2.28;;;1.98;;
80245;SDS011;69558;39.208;-77.226;2023-12-20T10:33:26;2.28;;;1.73;;
80245;SDS011;69558;39.208;-77.226;2023-12-20T10:35:54;1.35;;;0.65;;
80245;SDS011;69558;39.208;-77.226;2023-12-20T10:38:21;2.42;;;1.80;;
80245;SDS011;69558;39.208;-77.226;2023-12-20T10:40:47;1.90;;;1.75;;
80245;SDS011;69558;39.208;-77.226;2023-12-20T10:43:14;2.10;;;1.85;;
80245;SDS011;69558;39.208;-77.226;2023-12-20T10:45:41;2.03;;;1.70;;
80245;SDS011;69558;39.208;-77.226;2023-12-20T10:48:10;2.33;;;1.63;;
80245;SDS011;69558;39.208;-77.226;2023-12-20T10:50:39;1.75;;;0.85;;
80245;SDS011;69558;39.208;-77.226;2023-12-20T10:53:06;1.88;;;1.42;;
80245;SDS011;69558;39.208;-77.226;2023-12-20T10:55:33;1.50;;;0.63;;
80245;SDS011;69558;39.208;-77.226;2023-12-20T10:58:17;2.17;;;1.88;;
80245;SDS011;69558;39.208;-77.226;2023-12-20T11:00:45;1.60;;;1.42;;
80245;SDS011;69558;39.208;-77.226;2023-12-20T11:03:16;1.98;;;1.77;;
80245;SDS011;69558;39.208;-77.226;2023-12-20T11:05:50;2.10;;;1.58;;
80245;SDS011;69558;39.208;-77.226;2023-12-20T11:08:28;1.95;;;1.52;;
80245;SDS011;69558;39.208;-77.226;2023-12-20T11:16:27;0.93;;;0.52;;
80245;SDS011;69558;39.208;-77.226;2023-12-20T11:18:53;1.75;;;1.45;;
80245;SDS011;69558;39.208;-77.226;2023-12-20T11:21:19;1.95;;;1.70;;
80245;SDS011;69558;39.208;-77.226;2023-12-20T11:23:46;1.95;;;1.58;;
80245;SDS011;69558;39.208;-77.226;2023-12-20T11:26:12;1.42;;;1.33;;
80245;SDS011;69558;39.208;-77.226;2023-12-20T11:28:41;2.33;;;1.80;;
80245;SDS011;69558;39.208;-77.226;2023-12-20T11:31:07;1.80;;;1.45;;
80245;SDS011;69558;39.208;-77.226;2023-12-20T11:33:36;2.30;;;1.45;;
80245;SDS011;69558;39.208;-77.226;2023-12-20T11:36:03;2.13;;;1.92;;
80245;SDS011;69558;39.208;-77.226;2023-12-20T11:38:37;1.38;;;1.23;;
80245;SDS011;69558;39.208;-77.226;2023-12-20T11:41:05;1.75;;;1.55;;
80245;SDS011;69558;39.208;-77.226;2023-12-20T11:43:38;2.17;;;1.73;;
80245;SDS011;69558;39.208;-77.226;2023-12-20T11:46:08;2.45;;;2.03;;
80245;SDS011;69558;39.208;-77.226;2023-12-20T11:48:35;2.08;;;1.88;;
80245;SDS011;69558;39.208;-77.226;2023-12-20T11:51:02;2.15;;;1.85;;
80245;SDS011;69558;39.208;-77.226;2023-12-20T11:53:29;1.58;;;1.40;;
80245;SDS011;69558;39.208;-77.226;2023-12-20T11:55:57;2.17;;;1.83;;
80245;SDS011;69558;39.208;-77.226;2023-12-20T11:58:23;2.75;;;1.98;;
80245;SDS011;69558;39.208;-77.226;2023-12-20T12:00:51;1.63;;;0.80;;
80245;SDS011;69558;39.208;-77.226;2023-12-20T12:03:17;2.42;;;1.95;;
80245;SDS011;69558;39.208;-77.226;2023-12-20T12:05:43;2.03;;;1.73;;
80245;SDS011;69558;39.208;-77.226;2023-12-20T12:08:11;1.95;;;1.67;;
80245;SDS011;69558;39.208;-77.226;2023-12-20T12:10:37;1.02;;;0.50;;
80245;SDS011;69558;39.208;-77.226;2023-12-20T12:13:03;2.03;;;1.58;;
80245;SDS011;69558;39.208;-77.226;2023-12-20T12:15:29;1.67;;;1.38;;
80245;SDS011;69558;39.208;-77.226;2023-12-20T12:17:55;2.35;;;1.77;;
80245;SDS011;69558;39.208;-77.226;2023-12-20T12:20:22;2.38;;;1.73;;
80245;SDS011;69558;39.208;-77.226;2023-12-20T12:23:02;1.98;;;1.60;;
80245;SDS011;69558;39.208;-77.226;2023-12-20T12:27:56;1.58;;;0.63;;
80245;SDS011;69558;39.208;-77.226;2023-12-20T12:32:52;1.83;;;1.58;;
80245;SDS011;69558;39.208;-77.226;2023-12-20T12:35:19;3.22;;;2.22;;
80245;SDS011;69558;39.208;-77.226;2023-12-20T12:37:45;3.35;;;2.28;;
80245;SDS011;69558;39.208;-77.226;2023-12-20T12:40:12;1.95;;;0.90;;
80245;SDS011;69558;39.208;-77.226;2023-12-20T12:42:39;2.63;;;2.05;;
80245;SDS011;69558;39.208;-77.226;2023-12-20T12:45:06;3.05;;;2.40;;
80245;SDS011;69558;39.208;-77.226;2023-12-20T12:47:33;3.40;;;2.33;;
80245;SDS011;69558;39.208;-77.226;2023-12-20T12:50:00;2.28;;;1.80;;
80245;SDS011;69558;39.208;-77.226;2023-12-20T12:52:26;2.47;;;1.98;;
80245;SDS011;69558;39.208;-77.226;2023-12-20T12:54:52;2.85;;;1.50;;
80245;SDS011;69558;39.208;-77.226;2023-12-20T12:57:18;2.75;;;2.00;;
80245;SDS011;69558;39.208;-77.226;2023-12-20T12:59:45;2.40;;;2.20;;
80245;SDS011;69558;39.208;-77.226;2023-12-20T13:02:14;2.28;;;2.08;;
80245;SDS011;69558;39.208;-77.226;2023-12-20T13:04:40;2.63;;;2.05;;
80245;SDS011;69558;39.208;-77.226;2023-12-20T13:07:07;2.30;;;1.83;;
80245;SDS011;69558;39.208;-77.226;2023-12-20T13:09:37;2.90;;;2.25;;
80245;SDS011;69558;39.208;-77.226;2023-12-20T13:12:04;2.70;;;2.05;;
80245;SDS011;69558;39.208;-77.226;2023-12-20T13:14:34;2.30;;;1.88;;
80245;SDS011;69558;39.208;-77.226;2023-12-20T13:17:03;2.38;;;2.17;;
80245;SDS011;69558;39.208;-77.226;2023-12-20T13:19:30;2.22;;;1.23;;
80245;SDS011;69558;39.208;-77.226;2023-12-20T13:21:56;2.38;;;1.83;;
80245;SDS011;69558;39.208;-77.226;2023-12-20T13:26:49;1.55;;;0.70;;
80245;SDS011;69558;39.208;-77.226;2023-12-20T13:29:15;1.98;;;1.63;;
80245;SDS011;69558;39.208;-77.226;2023-12-20T13:31:40;1.77;;;1.58;;
80245;SDS011;69558;39.208;-77.226;2023-12-20T13:34:06;2.25;;;1.92;;
80245;SDS011;69558;39.208;-77.226;2023-12-20T13:36:32;2.40;;;1.75;;
80245;SDS011;69558;39.208;-77.226;2023-12-20T13:38:58;1.27;;;0.60;;
80245;SDS011;69558;39.208;-77.226;2023-12-20T13:41:24;1.85;;;1.67;;
80245;SDS011;69558;39.208;-77.226;2023-12-20T13:43:50;1.85;;;1.75;;
80245;SDS011;69558;39.208;-77.226;2023-12-20T13:46:16;2.30;;;1.58;;
80245;SDS011;69558;39.208;-77.226;2023-12-20T13:48:42;1.88;;;1.67;;
80245;SDS011;69558;39.208;-77.226;2023-12-20T13:51:08;1.98;;;1.77;;
80245;SDS011;69558;39.208;-77.226;2023-12-20T13:53:34;1.70;;;0.70;;
80245;SDS011;69558;39.208;-77.226;2023-12-20T13:56:00;1.95;;;1.58;;
80245;SDS011;69558;39.208;-77.226;2023-12-20T13:58:26;2.17;;;1.60;;
80245;SDS011;69558;39.208;-77.226;2023-12-20T14:00:52;2.45;;;1.65;;
80245;SDS011;69558;39.208;-77.226;2023-12-20T14:03:18;1.77;;;1.30;;
80245;SDS011;69558;39.208;-77.226;2023-12-20T14:05:45;1.58;;;0.65;;
80245;SDS011;69558;39.208;-77.226;2023-12-20T14:08:11;2.63;;;1.92;;
80245;SDS011;69558;39.208;-77.226;2023-12-20T14:10:37;2.38;;;1.75;;
80245;SDS011;69558;39.208;-77.226;2023-12-20T14:13:04;2.17;;;1.70;;
80245;SDS011;69558;39.208;-77.226;2023-12-20T14:15:30;2.90;;;1.77;;
80245;SDS011;69558;39.208;-77.226;2023-12-20T14:18:03;2.35;;;0.80;;
80245;SDS011;69558;39.208;-77.226;2023-12-20T14:20:33;1.75;;;0.80;;
80245;SDS011;69558;39.208;-77.226;2023-12-20T14:23:04;1.95;;;1.73;;
80245;SDS011;69558;39.208;-77.226;2023-12-20T14:25:30;2.92;;;2.03;;
80245;SDS011;69558;39.208;-77.226;2023-12-20T14:27:56;2.45;;;1.88;;
80245;SDS011;69558;39.208;-77.226;2023-12-20T14:30:23;2.50;;;1.85;;
80245;SDS011;69558;39.208;-77.226;2023-12-20T14:32:49;2.65;;;1.92;;
80245;SDS011;69558;39.208;-77.226;2023-12-20T14:35:15;1.50;;;0.70;;